Time;durP1;ratioP1;P1;durP2;ratioP2;P2;SDS_P1;SDS_P2;PMS_P1;PMS_P2;Temp;Humidity;BMP_temperature;BMP_pressure;BME280_temperature;BME280_humidity;BME280_pressure;Samples;Min_cycle;Max_cycle;Signal;HPM_P1;HPM_P2
2022/11/22 00:00:42;;;;;;;44.67;18.55;;;4.30;99.90;;;;;;4915118;29;20483;-69
2022/11/22 00:03:08;;;;;;;37.95;19.50;;;4.30;99.90;;;;;;4916481;29;20044;-69
2022/11/22 00:05:34;;;;;;;38.65;18.02;;;4.20;99.90;;;;;;4914961;29;20036;-68
2022/11/22 00:08:00;;;;;;;42.17;19.80;;;4.20;99.90;;;;;;4915185;29;20040;-68
2022/11/22 00:10:25;;;;;;;38.47;18.98;;;4.20;99.90;;;;;;4920403;29;20067;-69
2022/11/22 00:12:52;;;;;;;41.15;19.02;;;4.20;99.90;;;;;;4937285;29;20051;-68
2022/11/22 00:15:18;;;;;;;41.63;19.02;;;4.20;99.90;;;;;;4954346;29;20074;-69
2022/11/22 00:17:44;;;;;;;36.60;18.50;;;4.20;99.90;;;;;;4937170;29;20051;-69
2022/11/22 00:20:10;;;;;;;41.67;20.70;;;4.20;99.90;;;;;;4953756;29;20438;-69
2022/11/22 00:22:36;;;;;;;36.78;18.10;;;4.20;99.90;;;;;;4937310;29;20051;-68
2022/11/22 00:25:03;;;;;;;36.55;18.23;;;4.20;99.90;;;;;;4937067;29;20039;-69
2022/11/22 00:27:28;;;;;;;37.28;17.33;;;4.20;99.90;;;;;;4954351;29;20043;-68
2022/11/22 00:29:54;;;;;;;35.90;17.20;;;4.20;99.90;;;;;;4954006;29;20410;-68
2022/11/22 00:32:20;;;;;;;30.92;15.38;;;4.20;99.90;;;;;;4954023;29;20085;-69
2022/11/22 00:34:45;;;;;;;34.80;16.27;;;4.20;99.90;;;;;;4936181;29;20054;-68
2022/11/22 00:37:11;;;;;;;30.27;15.10;;;4.20;99.90;;;;;;4953798;29;20043;-69
2022/11/22 00:39:37;;;;;;;33.25;16.42;;;4.20;99.90;;;;;;4936325;29;20102;-68
2022/11/22 00:42:03;;;;;;;31.80;15.70;;;4.20;99.90;;;;;;4953916;29;20043;-68
2022/11/22 00:44:28;;;;;;;26.77;15.38;;;4.20;99.90;;;;;;4953785;29;20072;-68
2022/11/22 00:46:54;;;;;;;29.08;16.20;;;4.20;99.90;;;;;;4953317;29;20059;-68
2022/11/22 00:49:20;;;;;;;30.10;15.43;;;4.20;99.90;;;;;;4953505;28;20046;-68
2022/11/22 00:51:46;;;;;;;28.00;15.13;;;4.20;99.90;;;;;;4953685;29;20390;-68
2022/11/22 00:54:11;;;;;;;28.88;15.43;;;4.20;99.90;;;;;;4953466;29;20058;-68
2022/11/22 00:56:37;;;;;;;26.65;13.82;;;4.20;99.90;;;;;;4953586;29;20057;-67
2022/11/22 00:59:03;;;;;;;29.65;14.57;;;4.20;99.90;;;;;;4936434;28;20050;-68
2022/11/22 01:01:29;;;;;;;25.23;14.27;;;4.30;99.90;;;;;;4972455;28;20042;-68
2022/11/22 01:03:55;;;;;;;23.58;12.80;;;4.30;99.90;;;;;;4972742;28;20054;-68
2022/11/22 01:06:21;;;;;;;26.02;14.27;;;4.30;99.90;;;;;;4972701;28;20035;-67
2022/11/22 01:08:47;;;;;;;24.42;13.30;;;4.20;99.90;;;;;;4955293;28;20054;-68
2022/11/22 01:11:16;;;;;;;25.35;14.27;;;4.30;99.90;;;;;;4972617;28;20055;-69
2022/11/22 01:13:41;;;;;;;26.17;14.07;;;4.30;99.90;;;;;;4939227;28;20469;-68
2022/11/22 01:16:09;;;;;;;27.40;14.48;;;4.30;99.90;;;;;;4954772;28;20082;-67
2022/11/22 01:18:34;;;;;;;31.48;15.18;;;4.30;99.90;;;;;;4972613;28;20050;-68
2022/11/22 01:21:01;;;;;;;31.35;14.82;;;4.30;99.90;;;;;;4972484;28;20031;-67
2022/11/22 01:23:26;;;;;;;33.40;14.43;;;4.30;99.90;;;;;;4955056;28;20046;-67
2022/11/22 01:25:52;;;;;;;29.55;14.57;;;4.30;99.90;;;;;;4939185;28;20056;-67
2022/11/22 01:28:18;;;;;;;31.98;17.27;;;4.30;99.90;;;;;;4955039;28;20449;-67
2022/11/22 01:30:44;;;;;;;28.75;15.15;;;4.30;99.90;;;;;;4972041;28;20097;-66
2022/11/22 01:33:10;;;;;;;26.67;14.27;;;4.30;99.90;;;;;;4972332;28;20054;-67
2022/11/22 01:35:36;;;;;;;30.08;15.55;;;4.30;99.90;;;;;;4972177;28;20043;-67
2022/11/22 01:38:01;;;;;;;31.23;15.88;;;4.30;99.90;;;;;;4955103;28;20087;-67
2022/11/22 01:40:27;;;;;;;31.88;16.20;;;4.30;99.90;;;;;;4954770;28;20511;-67
2022/11/22 01:42:55;;;;;;;31.60;15.70;;;4.30;99.90;;;;;;4954869;28;20129;-67
2022/11/22 01:45:30;;;;;;;26.58;14.20;;;4.30;99.90;;;;;;4971766;28;20098;-67
2022/11/22 01:48:01;;;;;;;28.42;15.18;;;4.30;99.90;;;;;;4972155;28;20381;-67
2022/11/22 01:50:30;;;;;;;29.80;15.52;;;4.30;99.90;;;;;;4954664;28;20047;-67
2022/11/22 01:53:01;;;;;;;30.48;15.77;;;4.30;99.90;;;;;;4972102;28;20038;-66
2022/11/22 01:55:27;;;;;;;23.45;13.05;;;4.30;99.90;;;;;;4972158;28;20043;-67
2022/11/22 01:57:52;;;;;;;25.98;13.95;;;4.30;99.90;;;;;;4971970;28;20370;-67
2022/11/22 02:00:18;;;;;;;26.73;14.48;;;4.30;99.90;;;;;;4971229;28;20074;-67
2022/11/22 02:02:54;;;;;;;22.13;12.57;;;4.30;99.90;;;;;;4971625;28;20054;-67
2022/11/22 02:05:24;;;;;;;28.35;15.02;;;4.30;99.90;;;;;;4954806;28;20051;-67
2022/11/22 02:07:57;;;;;;;34.13;15.35;;;4.40;99.90;;;;;;4954607;28;20121;-67
2022/11/22 02:10:26;;;;;;;31.15;15.43;;;4.40;99.90;;;;;;4971630;28;20507;-68
2022/11/22 02:12:55;;;;;;;25.73;15.00;;;4.40;99.90;;;;;;4954753;28;20050;-68
2022/11/22 02:15:20;;;;;;;28.05;15.65;;;4.40;99.90;;;;;;4954016;28;20042;-68
2022/11/22 02:17:46;;;;;;;28.67;15.10;;;4.40;99.90;;;;;;4971663;28;20092;-69
2022/11/22 02:20:12;;;;;;;24.50;14.45;;;4.40;99.90;;;;;;4954330;28;20045;-67
2022/11/22 02:22:49;;;;;;;31.73;17.40;;;4.40;99.90;;;;;;4971707;28;20608;-69
2022/11/22 02:25:40;;;;;;;27.52;15.40;;;4.40;99.90;;;;;;4954289;28;20049;-68
2022/11/22 02:28:07;;;;;;;;;;;4.40;99.90;;;;;;4972072;28;20122;-68
2022/11/22 02:30:34;;;;;;;27.25;14.45;;;4.40;99.90;;;;;;4953814;28;19918;-68
2022/11/22 02:33:00;;;;;;;31.23;15.52;;;4.40;99.90;;;;;;4938277;28;20051;-68
2022/11/22 02:35:27;;;;;;;31.10;15.10;;;4.40;99.90;;;;;;4971432;28;20057;-68
2022/11/22 02:37:56;;;;;;;30.38;15.75;;;4.40;99.90;;;;;;4971568;28;20042;-69
2022/11/22 02:40:23;;;;;;;27.50;14.93;;;4.50;99.90;;;;;;4971384;28;20078;-68
2022/11/22 02:42:54;;;;;;;26.38;15.38;;;4.50;99.90;;;;;;4971695;28;20124;-68
2022/11/22 02:45:20;;;;;;;23.63;13.90;;;4.50;99.90;;;;;;4971549;28;20117;-68
2022/11/22 02:47:46;;;;;;;26.20;15.13;;;4.50;99.90;;;;;;4954158;28;20047;-68
2022/11/22 02:50:12;;;;;;;24.63;14.13;;;4.50;99.90;;;;;;4971372;28;20050;-68
2022/11/22 02:52:38;;;;;;;23.73;12.88;;;4.60;99.90;;;;;;4971473;28;20055;-68
2022/11/22 02:55:03;;;;;;;29.40;16.20;;;4.60;99.90;;;;;;4971332;28;20122;-68
2022/11/22 02:57:29;;;;;;;26.77;14.10;;;4.60;99.90;;;;;;4970972;28;20038;-68
2022/11/22 02:59:55;;;;;;;24.65;14.48;;;4.60;99.90;;;;;;4954013;28;20110;-68
2022/11/22 03:02:21;;;;;;;22.95;14.07;;;4.60;99.90;;;;;;4953989;28;20571;-68
2022/11/22 03:04:46;;;;;;;28.45;14.48;;;4.60;99.90;;;;;;4971301;28;20039;-68
2022/11/22 03:07:12;;;;;;;22.02;13.90;;;4.70;99.90;;;;;;4954109;28;20130;-68
2022/11/22 03:09:38;;;;;;;27.38;14.88;;;4.70;99.90;;;;;;4971224;28;20504;-68
2022/11/22 03:12:03;;;;;;;28.27;14.25;;;4.70;99.90;;;;;;4954073;28;20113;-68
2022/11/22 03:14:29;;;;;;;28.35;15.98;;;4.70;99.90;;;;;;4957297;28;20050;-68
2022/11/22 03:16:55;;;;;;;27.83;14.27;;;4.80;99.90;;;;;;4941656;28;20055;-68
2022/11/22 03:19:21;;;;;;;24.70;15.18;;;4.80;99.90;;;;;;4941256;28;20047;-68
2022/11/22 03:21:47;;;;;;;33.97;16.08;;;4.80;99.90;;;;;;4974638;28;20070;-68
2022/11/22 03:24:13;;;;;;;22.30;14.25;;;4.80;99.90;;;;;;4974469;28;20038;-67
2022/11/22 03:26:39;;;;;;;23.88;14.48;;;4.90;99.90;;;;;;4974039;28;20041;-68
2022/11/22 03:29:04;;;;;;;27.73;15.88;;;4.90;99.90;;;;;;4974695;28;20081;-68
2022/11/22 03:31:30;;;;;;;26.92;15.07;;;4.90;99.90;;;;;;4957053;28;20039;-67
2022/11/22 03:33:56;;;;;;;25.13;14.48;;;5.00;99.90;;;;;;4974446;28;20074;-68
2022/11/22 03:36:22;;;;;;;26.30;16.27;;;5.00;99.90;;;;;;4974413;28;20034;-67
2022/11/22 03:38:49;;;;;;;24.48;15.40;;;5.00;99.90;;;;;;4974210;28;20386;-68
2022/11/22 03:41:15;;;;;;;23.77;14.25;;;5.00;99.90;;;;;;4956379;28;20054;-68
2022/11/22 03:43:40;;;;;;;23.90;14.18;;;5.10;99.90;;;;;;4957164;28;20122;-67
2022/11/22 03:46:11;;;;;;;32.40;16.50;;;5.10;99.90;;;;;;4974189;28;20473;-68
2022/11/22 03:48:37;;;;;;;30.45;16.92;;;5.10;99.90;;;;;;4974193;28;20050;-68
2022/11/22 03:51:04;;;;;;;27.55;14.85;;;5.10;99.90;;;;;;4956995;28;20043;-68
2022/11/22 03:53:31;;;;;;;25.38;16.13;;;5.10;99.90;;;;;;4956634;28;20055;-68
2022/11/22 03:55:57;;;;;;;25.50;15.00;;;5.10;99.90;;;;;;4973753;28;20043;-68
2022/11/22 03:58:22;;;;;;;24.70;14.70;;;5.10;99.90;;;;;;4940818;28;20045;-68
2022/11/22 04:00:48;;;;;;;28.38;16.40;;;5.10;99.90;;;;;;4956570;28;20515;-68
2022/11/22 04:03:14;;;;;;;25.13;15.10;;;5.10;99.90;;;;;;4956849;28;20109;-68
2022/11/22 04:05:39;;;;;;;25.42;14.60;;;5.00;99.90;;;;;;4956483;28;20404;-68
2022/11/22 04:08:05;;;;;;;30.77;15.15;;;5.00;99.90;;;;;;4973748;28;20041;-68
2022/11/22 04:10:31;;;;;;;28.50;16.20;;;4.90;99.90;;;;;;4955714;28;20567;-68
2022/11/22 04:12:57;;;;;;;28.30;15.70;;;4.90;99.90;;;;;;4973779;28;20051;-68
2022/11/22 04:15:24;;;;;;;28.23;16.33;;;4.90;99.90;;;;;;4956252;28;20134;-68
2022/11/22 04:17:50;;;;;;;25.92;15.15;;;4.90;99.90;;;;;;4956262;28;20046;-68
2022/11/22 04:23:13;;;;;;;28.83;16.10;;;5.00;99.90;;;;;;4956093;28;20059;-68
2022/11/22 04:25:45;;;;;;;33.35;18.30;;;5.00;99.90;;;;;;4955346;28;20086;-69
2022/11/22 04:28:12;;;;;;;28.50;16.95;;;5.10;99.90;;;;;;4956150;28;20046;-68
2022/11/22 04:33:23;;;;;;;36.00;17.92;;;5.10;99.90;;;;;;4973526;28;20057;-68
2022/11/22 04:35:49;;;;;;;34.08;18.30;;;5.10;99.90;;;;;;4956075;28;20421;-68
2022/11/22 04:38:16;;;;;;;30.38;16.92;;;5.10;99.90;;;;;;4973341;28;20082;-68
2022/11/22 04:40:42;;;;;;;29.50;17.15;;;5.10;99.90;;;;;;4972697;28;20041;-68
2022/11/22 04:46:03;;;;;;;27.55;16.25;;;5.20;99.90;;;;;;4955698;28;20122;-68
2022/11/22 04:48:29;;;;;;;30.80;16.90;;;5.30;99.90;;;;;;4955968;28;20119;-68
2022/11/22 04:53:39;;;;;;;28.45;15.65;;;5.30;99.90;;;;;;4955403;28;20051;-67
2022/11/22 04:56:04;;;;;;;27.73;17.00;;;5.40;99.90;;;;;;4973051;28;20401;-68
2022/11/22 04:58:30;;;;;;;27.55;15.38;;;5.50;99.90;;;;;;4972990;28;20121;-68
2022/11/22 05:00:56;;;;;;;28.75;14.95;;;5.50;99.90;;;;;;4972723;28;20038;-68
2022/11/22 05:03:22;;;;;;;22.73;14.30;;;5.60;99.90;;;;;;4972930;28;20085;-68
2022/11/22 05:05:47;;;;;;;27.23;14.40;;;5.70;99.90;;;;;;4972788;28;20053;-68
2022/11/22 05:08:13;;;;;;;23.38;13.13;;;5.70;99.90;;;;;;4972099;28;20204;-68
2022/11/22 05:10:58;;;;;;;25.88;16.05;;;5.70;99.90;;;;;;4955285;28;20057;-68
2022/11/22 05:13:33;;;;;;;25.23;15.13;;;5.70;99.90;;;;;;4972800;28;20043;-68
2022/11/22 05:16:00;;;;;;;28.63;15.82;;;5.80;99.90;;;;;;4955244;28;20134;-68
2022/11/22 05:18:27;;;;;;;29.02;14.98;;;5.70;99.90;;;;;;4972525;28;20408;-68
2022/11/22 05:20:53;;;;;;;19.90;11.05;;;5.80;99.90;;;;;;4954847;28;20396;-67
2022/11/22 05:26:05;;;;;;;24.95;11.40;;;5.90;99.90;;;;;;4955251;28;20042;-68
2022/11/22 05:28:33;;;;;;;19.83;11.50;;;5.90;99.90;;;;;;4972364;28;20504;-68
2022/11/22 05:31:15;;;;;;;19.60;12.55;;;5.90;99.90;;;;;;4954932;28;20082;-67
2022/11/22 05:33:44;;;;;;;26.30;14.05;;;5.80;99.90;;;;;;4955260;28;20046;-68
2022/11/22 05:36:10;;;;;;;24.23;11.65;;;5.80;99.90;;;;;;4954270;28;20074;-68
2022/11/22 05:38:37;;;;;;;22.02;11.80;;;5.80;99.90;;;;;;4954368;28;20492;-67
2022/11/22 05:41:05;;;;;;;23.00;11.70;;;5.70;99.90;;;;;;4954763;28;20077;-68
2022/11/22 05:43:31;;;;;;;20.65;12.30;;;5.70;99.90;;;;;;4955054;28;20051;-68
2022/11/22 05:46:08;;;;;;;31.05;13.38;;;5.70;99.90;;;;;;4972039;28;20072;-68
2022/11/22 05:48:35;;;;;;;25.10;13.02;;;5.60;99.90;;;;;;4971992;28;20050;-68
2022/11/22 05:51:06;;;;;;;26.95;12.05;;;5.60;99.90;;;;;;4954800;28;20070;-68
2022/11/22 05:53:32;;;;;;;26.50;12.80;;;5.50;99.90;;;;;;4954173;28;20042;-68
2022/11/22 05:56:02;;;;;;;22.38;12.95;;;5.50;99.90;;;;;;4954895;28;20120;-68
2022/11/22 05:58:27;;;;;;;24.58;12.38;;;5.40;99.90;;;;;;4954448;28;20047;-67
2022/11/22 06:00:53;;;;;;;25.73;13.77;;;5.40;99.90;;;;;;4954379;28;20100;-68
2022/11/22 06:03:19;;;;;;;27.92;14.27;;;5.30;99.90;;;;;;4954427;28;20039;-68
2022/11/22 06:05:50;;;;;;;27.83;13.55;;;5.30;99.90;;;;;;4971726;28;20042;-67
2022/11/22 06:08:16;;;;;;;27.58;13.15;;;5.20;99.90;;;;;;4954242;28;20098;-68
2022/11/22 06:10:42;;;;;;;25.50;12.52;;;5.20;99.90;;;;;;4971268;28;20078;-68
2022/11/22 06:13:07;;;;;;;23.88;12.73;;;5.10;99.90;;;;;;4954673;28;20058;-68
2022/11/22 06:15:33;;;;;;;24.75;13.18;;;5.00;99.90;;;;;;4938431;28;20455;-68
2022/11/22 06:17:59;;;;;;;26.17;12.70;;;5.00;99.90;;;;;;4971474;28;20043;-68
2022/11/22 06:20:25;;;;;;;27.65;13.10;;;5.00;99.90;;;;;;4971130;28;20049;-67
2022/11/22 06:22:50;;;;;;;26.85;13.10;;;4.90;99.90;;;;;;4971610;28;20385;-68
2022/11/22 06:25:16;;;;;;;28.60;13.75;;;4.90;99.90;;;;;;4954221;28;20042;-67
2022/11/22 06:27:42;;;;;;;29.80;14.25;;;4.90;99.90;;;;;;4970896;28;20042;-68
2022/11/22 06:30:08;;;;;;;28.42;13.05;;;4.80;99.90;;;;;;4970262;28;20385;-67
2022/11/22 06:32:34;;;;;;;23.73;13.40;;;4.80;99.90;;;;;;4970085;28;20130;-68
2022/11/22 06:35:01;;;;;;;25.80;12.77;;;4.70;99.90;;;;;;4969848;28;20125;-68
2022/11/22 06:37:28;;;;;;;27.73;12.18;;;4.60;99.90;;;;;;4970054;28;20082;-68
2022/11/22 06:39:53;;;;;;;29.92;11.55;;;4.60;99.90;;;;;;4969758;28;20042;-68
2022/11/22 06:42:19;;;;;;;25.67;12.32;;;4.60;99.90;;;;;;4953998;28;20078;-68
2022/11/22 06:44:45;;;;;;;26.02;12.10;;;4.50;99.90;;;;;;4971438;28;20098;-68
2022/11/22 06:47:11;;;;;;;25.30;10.80;;;4.50;99.90;;;;;;4972566;28;20126;-67
2022/11/22 06:49:37;;;;;;;23.30;11.32;;;4.50;99.90;;;;;;4973719;28;20564;-68
2022/11/22 06:52:04;;;;;;;27.77;12.00;;;4.50;99.90;;;;;;4974452;28;20046;-68
2022/11/22 06:54:29;;;;;;;20.95;9.10;;;4.50;99.90;;;;;;4973932;28;20051;-68
2022/11/22 06:56:55;;;;;;;26.30;9.70;;;4.50;99.90;;;;;;4973860;28;20104;-68
2022/11/22 06:59:21;;;;;;;20.70;10.10;;;4.50;99.90;;;;;;4956342;28;20050;-68
2022/11/22 07:01:47;;;;;;;19.88;9.30;;;4.50;99.90;;;;;;4957278;28;20122;-68
2022/11/22 07:04:13;;;;;;;34.13;10.68;;;4.50;99.90;;;;;;4972872;28;20193;-68
2022/11/22 07:06:39;;;;;;;23.20;9.77;;;4.50;99.90;;;;;;4973630;28;20117;-67
2022/11/22 07:09:07;;;;;;;21.08;8.65;;;4.40;99.90;;;;;;4974873;28;20512;-68
2022/11/22 07:11:34;;;;;;;19.38;7.63;;;4.40;99.90;;;;;;4973994;28;20057;-67
2022/11/22 07:14:01;;;;;;;20.73;9.25;;;4.40;99.90;;;;;;4973985;28;20051;-68
2022/11/22 07:16:27;;;;;;;16.65;8.10;;;4.30;99.90;;;;;;4974924;28;20125;-67
2022/11/22 07:18:53;;;;;;;25.52;8.88;;;4.30;99.90;;;;;;4973262;28;20456;-68
2022/11/22 07:21:21;;;;;;;19.10;8.30;;;4.30;99.90;;;;;;4973482;28;20049;-68
2022/11/22 07:23:48;;;;;;;24.75;7.97;;;4.30;99.90;;;;;;4955793;28;20042;-69
2022/11/22 07:26:16;;;;;;;20.52;8.98;;;4.30;99.90;;;;;;4973663;28;20043;-69
2022/11/22 07:28:42;;;;;;;20.55;9.30;;;4.30;99.90;;;;;;4973272;28;20121;-68
2022/11/22 07:31:09;;;;;;;25.13;8.60;;;4.30;99.90;;;;;;4939666;28;20050;-67
2022/11/22 07:33:35;;;;;;;19.13;6.72;;;4.20;99.90;;;;;;4972688;28;20089;-67
2022/11/22 07:36:04;;;;;;;17.55;6.93;;;4.20;99.90;;;;;;4956004;28;20112;-67
2022/11/22 07:38:30;;;;;;;15.43;7.70;;;4.20;99.90;;;;;;4973055;28;20046;-67
2022/11/22 07:40:56;;;;;;;15.20;6.82;;;4.30;99.90;;;;;;4955864;28;20039;-68
2022/11/22 07:43:21;;;;;;;13.68;6.32;;;4.30;99.90;;;;;;4955956;28;20450;-68
2022/11/22 07:45:47;;;;;;;16.95;6.20;;;4.30;99.90;;;;;;4972963;28;20121;-68
2022/11/22 07:48:13;;;;;;;13.75;6.32;;;4.40;99.90;;;;;;4955125;28;20038;-68
2022/11/22 07:50:40;;;;;;;22.58;6.40;;;4.50;99.90;;;;;;4973187;28;20145;-67
2022/11/22 07:53:07;;;;;;;16.40;5.43;;;4.50;99.90;;;;;;4973127;28;20055;-67
2022/11/22 07:55:33;;;;;;;15.55;5.63;;;4.60;99.90;;;;;;4955722;28;20049;-67
2022/11/22 07:57:59;;;;;;;15.30;5.70;;;4.70;99.90;;;;;;4955407;28;20137;-67
2022/11/22 08:00:26;;;;;;;16.38;6.65;;;4.70;99.90;;;;;;4971905;28;20042;-67
2022/11/22 08:02:52;;;;;;;11.98;5.30;;;4.80;99.90;;;;;;4955015;28;20501;-68
2022/11/22 08:05:17;;;;;;;13.68;5.22;;;4.80;99.90;;;;;;4972928;28;20038;-67
2022/11/22 08:07:48;;;;;;;13.65;5.97;;;4.90;99.90;;;;;;4955249;28;20050;-68
2022/11/22 08:10:14;;;;;;;16.48;4.30;;;4.90;99.90;;;;;;4972625;28;20069;-66
2022/11/22 08:12:40;;;;;;;16.05;4.55;;;5.00;99.90;;;;;;4955468;28;20271;-68
2022/11/22 08:15:06;;;;;;;14.77;4.53;;;5.00;99.90;;;;;;4955432;28;20560;-67
2022/11/22 08:17:32;;;;;;;10.77;4.10;;;5.10;99.90;;;;;;4954689;28;20101;-67
2022/11/22 08:19:58;;;;;;;10.40;4.28;;;5.10;99.90;;;;;;4955012;28;20070;-68
2022/11/22 08:22:23;;;;;;;12.10;4.22;;;5.10;99.90;;;;;;4972622;28;20074;-69
2022/11/22 08:24:49;;;;;;;14.15;3.88;;;5.10;99.90;;;;;;4955291;28;20038;-69
2022/11/22 08:27:15;;;;;;;10.63;3.45;;;5.10;99.90;;;;;;4972485;28;20049;-70
2022/11/22 08:29:40;;;;;;;8.85;3.65;;;5.20;99.90;;;;;;4954912;28;20493;-70
2022/11/22 08:32:06;;;;;;;7.88;2.40;;;5.20;99.90;;;;;;4954562;28;20078;-70
2022/11/22 08:34:32;;;;;;;13.88;4.65;;;5.20;99.90;;;;;;4972174;28;20050;-69
2022/11/22 08:36:58;;;;;;;12.10;3.35;;;5.30;99.90;;;;;;4955124;28;20047;-69
2022/11/22 08:39:23;;;;;;;8.30;2.95;;;5.20;99.90;;;;;;4972252;28;20401;-68
2022/11/22 08:41:49;;;;;;;13.77;4.68;;;5.30;99.90;;;;;;4972086;28;20086;-69
2022/11/22 08:44:15;;;;;;;10.60;3.05;;;5.30;99.90;;;;;;4954894;28;20051;-69
2022/11/22 08:46:41;;;;;;;9.80;3.53;;;5.30;99.90;;;;;;4971526;28;20515;-68
2022/11/22 08:49:06;;;;;;;8.00;3.17;;;5.30;99.90;;;;;;4954814;28;20046;-69
2022/11/22 08:51:33;;;;;;;8.90;3.95;;;5.30;99.90;;;;;;4938511;28;20400;-67
2022/11/22 08:53:59;;;;;;;8.20;3.35;;;5.40;99.90;;;;;;4971746;28;20051;-69
2022/11/22 08:56:25;;;;;;;8.75;2.83;;;5.40;99.90;;;;;;4938762;28;20113;-69
2022/11/22 08:58:50;;;;;;;8.95;3.97;;;5.40;99.90;;;;;;4954357;28;20488;-70
2022/11/22 09:01:18;;;;;;;9.25;3.20;;;5.40;99.90;;;;;;4953865;28;20125;-70
2022/11/22 09:03:44;;;;;;;11.48;4.47;;;5.40;99.90;;;;;;4971613;28;20062;-69
2022/11/22 09:06:14;;;;;;;9.75;3.03;;;5.50;99.90;;;;;;4954264;28;20485;-69
2022/11/22 09:08:40;;;;;;;9.88;3.72;;;5.40;99.90;;;;;;4971949;28;20039;-69
2022/11/22 09:11:15;;;;;;;4.68;2.97;;;5.50;99.90;;;;;;4937899;28;20448;-72
2022/11/22 09:13:41;;;;;;;10.05;4.20;;;5.50;99.90;;;;;;4954098;28;20149;-68
2022/11/22 09:16:18;;;;;;;10.23;3.28;;;5.50;99.90;;;;;;4953631;28;20181;-70
2022/11/22 09:18:44;;;;;;;10.85;3.38;;;5.50;99.90;;;;;;4954174;28;20050;-69
2022/11/22 09:21:16;;;;;;;9.85;3.78;;;5.50;99.90;;;;;;4953957;28;20064;-69
2022/11/22 09:23:43;;;;;;;6.00;2.45;;;5.60;99.90;;;;;;4971535;28;20047;-70
2022/11/22 09:26:11;;;;;;;11.30;3.63;;;5.60;99.90;;;;;;4954123;28;20039;-69
2022/11/22 09:28:37;;;;;;;8.30;3.90;;;5.60;99.90;;;;;;4953725;28;20050;-68
2022/11/22 09:31:08;;;;;;;6.35;2.92;;;5.60;99.90;;;;;;4953669;28;20043;-70
2022/11/22 09:33:36;;;;;;;7.07;3.63;;;5.60;99.90;;;;;;4953781;28;20093;-69
2022/11/22 09:36:07;;;;;;;14.68;3.22;;;5.60;99.90;;;;;;4954046;28;20047;-68
2022/11/22 09:38:34;;;;;;;10.55;2.75;;;5.70;99.90;;;;;;4954012;28;20568;-69
2022/11/22 09:41:09;;;;;;;8.05;3.42;;;5.70;99.90;;;;;;4970951;28;20043;-69
2022/11/22 09:43:44;;;;;;;8.88;3.28;;;5.80;99.90;;;;;;4953434;28;20046;-68
2022/11/22 09:46:31;;;;;;;5.45;2.90;;;5.80;99.90;;;;;;4970759;28;20046;-68
2022/11/22 09:49:17;;;;;;;9.07;3.13;;;5.90;99.90;;;;;;4970745;28;20035;-68
2022/11/22 09:52:06;;;;;;;9.07;3.63;;;5.90;99.90;;;;;;4952867;28;20039;-70
2022/11/22 09:54:48;;;;;;;14.32;3.85;;;6.00;99.90;;;;;;4970427;28;20039;-70
2022/11/22 09:57:23;;;;;;;9.20;3.53;;;6.00;99.90;;;;;;4972167;28;20049;-68
2022/11/22 09:59:58;;;;;;;14.10;4.60;;;6.00;99.90;;;;;;4970877;28;20497;-69
2022/11/22 10:02:36;;;;;;;9.63;3.30;;;6.10;99.90;;;;;;4970367;28;20051;-72
2022/11/22 10:05:12;;;;;;;9.63;3.88;;;6.10;99.90;;;;;;4970678;28;20103;-68
2022/11/22 10:07:45;;;;;;;9.55;3.13;;;6.10;99.90;;;;;;4970210;28;20039;-68
2022/11/22 10:10:14;;;;;;;9.63;3.90;;;6.10;99.90;;;;;;4970294;28;20398;-67
2022/11/22 10:12:52;;;;;;;7.15;4.13;;;6.10;99.90;;;;;;4971339;28;20047;-69
2022/11/22 10:15:43;;;;;;;10.88;3.78;;;6.10;99.90;;;;;;4971230;28;20042;-69
2022/11/22 10:18:30;;;;;;;11.63;4.00;;;6.20;99.90;;;;;;4968335;28;20232;-70
2022/11/22 10:20:56;;;;;;;9.82;3.83;;;6.10;99.90;;;;;;4951033;28;20040;-68
2022/11/22 10:23:23;;;;;;;6.38;3.00;;;6.20;99.90;;;;;;4954593;28;20089;-70
2022/11/22 10:26:10;;;;;;;10.63;3.00;;;6.20;99.90;;;;;;4955053;28;20386;-68
2022/11/22 10:29:19;;;;;;;7.72;2.90;;;6.10;99.90;;;;;;4971753;28;20057;-69
2022/11/22 10:32:10;;;;;;;6.95;2.50;;;6.10;99.90;;;;;;4942039;28;20059;-67
2022/11/22 10:35:05;;;;;;;7.35;2.85;;;6.10;99.90;;;;;;4940479;28;20521;-70
2022/11/22 10:37:53;;;;;;;9.68;3.40;;;6.20;99.90;;;;;;4966436;28;20047;-69
2022/11/22 10:40:34;;;;;;;7.65;2.15;;;6.20;99.90;;;;;;4973242;28;20379;-69
2022/11/22 10:43:17;;;;;;;8.88;2.70;;;6.20;99.90;;;;;;4971292;28;20043;-69
2022/11/22 10:45:48;;;;;;;5.65;2.60;;;6.20;99.90;;;;;;4939759;28;20043;-70
2022/11/22 10:48:29;;;;;;;5.15;1.83;;;6.30;99.90;;;;;;4954285;28;20042;-70
2022/11/22 10:51:19;;;;;;;4.43;1.80;;;6.30;99.90;;;;;;4955784;28;20043;-69
2022/11/22 10:53:58;;;;;;;5.68;2.08;;;6.40;99.90;;;;;;4956055;28;20509;-70
2022/11/22 10:56:38;;;;;;;7.78;2.10;;;6.40;99.90;;;;;;4939254;28;20492;-70
2022/11/22 10:59:21;;;;;;;7.23;2.43;;;6.40;99.90;;;;;;4955344;28;20074;-70
2022/11/22 11:01:58;;;;;;;8.50;2.50;;;6.60;99.90;;;;;;4970565;28;20257;-69
2022/11/22 11:04:31;;;;;;;8.65;2.13;;;6.60;99.90;;;;;;4972461;28;20070;-71
2022/11/22 11:06:59;;;;;;;4.15;1.73;;;6.80;99.90;;;;;;4939569;28;20105;-70
2022/11/22 11:09:45;;;;;;;7.80;1.90;;;7.00;99.90;;;;;;4954656;28;20122;-70
2022/11/22 11:12:41;;;;;;;4.68;2.03;;;7.50;99.90;;;;;;4950862;28;20146;-69
2022/11/22 11:15:41;;;;;;;4.93;1.85;;;7.90;99.90;;;;;;4955461;28;20038;-70
2022/11/22 11:18:27;;;;;;;;;;;8.10;99.90;;;;;;4955690;28;20058;-71
2022/11/22 11:20:53;;;;;;;2.67;1.67;;;7.90;99.90;;;;;;4954143;28;19926;-70
2022/11/22 11:23:20;;;;;;;6.20;1.58;;;7.80;99.90;;;;;;4955054;28;20101;-70
2022/11/22 11:25:47;;;;;;;5.05;2.10;;;7.60;99.90;;;;;;4938717;28;20118;-69
2022/11/22 11:28:26;;;;;;;7.28;2.22;;;7.40;99.90;;;;;;4972168;28;20077;-70
2022/11/22 11:31:05;;;;;;;11.40;1.95;;;7.40;99.90;;;;;;4954641;28;20508;-72
2022/11/22 11:33:37;;;;;;;5.45;1.70;;;7.20;99.90;;;;;;4954365;28;20046;-72
2022/11/22 11:36:15;;;;;;;9.52;1.95;;;7.10;99.90;;;;;;4954982;28;20047;-71
2022/11/22 11:38:41;;;;;;;5.15;1.45;;;7.10;99.90;;;;;;4972410;28;20122;-70
2022/11/22 11:41:26;;;;;;;5.13;1.70;;;7.10;99.90;;;;;;4938617;28;20130;-71
2022/11/22 11:43:54;;;;;;;4.90;1.40;;;7.10;99.90;;;;;;4954997;28;20138;-69
2022/11/22 11:46:25;;;;;;;5.75;1.83;;;7.10;99.90;;;;;;4972155;28;20050;-70
2022/11/22 11:49:07;;;;;;;5.53;2.10;;;7.10;99.90;;;;;;4955190;28;20042;-71
2022/11/22 11:51:42;;;;;;;6.68;1.67;;;7.10;99.90;;;;;;4939015;28;20056;-70
2022/11/22 11:54:13;;;;;;;4.35;1.48;;;7.10;99.90;;;;;;4954590;28;20097;-70
2022/11/22 11:56:49;;;;;;;4.63;1.70;;;7.10;99.90;;;;;;4971911;28;20043;-70
2022/11/22 11:59:35;;;;;;;4.03;1.48;;;7.10;99.90;;;;;;4954578;28;20054;-71
2022/11/22 12:02:12;;;;;;;6.93;1.83;;;7.10;99.90;;;;;;4937433;28;20064;-70
2022/11/22 12:04:52;;;;;;;6.65;2.10;;;7.10;99.90;;;;;;4972006;28;20043;-70
2022/11/22 12:07:27;;;;;;;5.57;2.35;;;7.00;99.90;;;;;;4972279;28;20845;-68
2022/11/22 12:09:54;;;;;;;6.40;2.00;;;7.00;99.90;;;;;;4971551;28;20045;-71
2022/11/22 12:12:35;;;;;;;8.93;2.05;;;7.00;99.90;;;;;;4962288;28;20157;-72
2022/11/22 12:15:21;;;;;;;9.20;2.08;;;7.00;99.90;;;;;;4971692;28;20038;-69
2022/11/22 12:18:18;;;;;;;5.60;2.22;;;7.00;99.90;;;;;;4971287;28;20039;-70
2022/11/22 12:20:58;;;;;;;7.88;1.90;;;7.00;99.90;;;;;;4943329;29;20517;-69
2022/11/22 12:23:31;;;;;;;;;;;7.00;99.90;;;;;;4952449;28;20046;-69
2022/11/22 12:25:59;;;;;;;5.50;1.90;;;6.90;99.90;;;;;;4970727;28;19925;-70
2022/11/22 12:28:27;;;;;;;8.45;2.08;;;6.90;99.90;;;;;;4954172;28;20058;-70
2022/11/22 12:31:17;;;;;;;7.85;1.90;;;6.90;99.90;;;;;;4970654;28;20090;-69
2022/11/22 12:33:49;;;;;;;5.88;1.83;;;6.90;99.90;;;;;;4925955;28;20062;-69
2022/11/22 12:36:40;;;;;;;6.78;2.13;;;7.00;99.90;;;;;;4971607;28;20532;-70
2022/11/22 12:39:24;;;;;;;4.20;2.08;;;7.00;99.90;;;;;;4953152;28;20050;-70
2022/11/22 12:42:15;;;;;;;9.45;2.33;;;7.00;99.90;;;;;;4954040;28;20047;-69
2022/11/22 12:44:50;;;;;;;5.35;1.88;;;7.10;99.90;;;;;;4940292;28;20489;-70
2022/11/22 12:47:21;;;;;;;5.15;2.25;;;7.10;99.90;;;;;;4953058;28;20089;-70
2022/11/22 12:49:52;;;;;;;4.93;1.92;;;7.20;99.90;;;;;;4953480;28;20537;-70
2022/11/22 12:52:24;;;;;;;4.68;1.95;;;7.20;99.90;;;;;;4952547;28;20053;-70
2022/11/22 12:55:28;;;;;;;7.97;2.67;;;7.20;99.90;;;;;;4970834;28;20054;-70
2022/11/22 12:58:42;;;;;;;8.13;1.77;;;7.30;99.90;;;;;;4901677;28;20505;-69
2022/11/22 13:01:26;;;;;;;6.90;2.33;;;7.30;99.90;;;;;;4916406;28;20057;-70
2022/11/22 13:03:57;;;;;;;6.53;1.80;;;7.30;99.90;;;;;;4966480;28;20081;-70
2022/11/22 13:06:33;;;;;;;5.82;1.45;;;7.40;99.90;;;;;;4952605;28;20046;-70
2022/11/22 13:09:05;;;;;;;5.95;1.65;;;7.40;99.90;;;;;;4953036;28;20046;-70
2022/11/22 13:11:44;;;;;;;7.07;1.90;;;7.40;99.90;;;;;;4970272;28;20636;-70
2022/11/22 13:14:20;;;;;;;5.40;1.60;;;7.40;99.90;;;;;;4953981;28;20082;-70